Time;durP1;ratioP1;P1;durP2;ratioP2;P2;SDS_P1;SDS_P2;PMS_P1;PMS_P2;Temp;Humidity;BMP_temperature;BMP_pressure;BME280_temperature;BME280_humidity;BME280_pressure;Samples;Min_cycle;Max_cycle;Signal;HPM_P1;HPM_P2
2021/06/24 00:00:03;;;;;;;;;13.67;11.67;;;;;16.80;61.30;101841.00;6282751;22;45241;-94
2021/06/24 00:02:31;;;;;;;;;11.67;8.67;;;;;16.76;61.25;101818.84;6304827;22;48128;-94
2021/06/24 00:04:56;;;;;;;;;14.67;11.00;;;;;16.76;61.54;101817.94;6305394;22;45688;-94
2021/06/24 00:07:24;;;;;;;;;10.00;9.67;;;;;16.83;61.28;101834.81;6279465;22;45354;-94
2021/06/24 00:09:49;;;;;;;;;11.00;10.00;;;;;16.92;61.63;101848.16;6279795;22;45224;-94
2021/06/24 00:12:19;;;;;;;;;12.00;10.33;;;;;16.89;61.65;101840.19;6303909;22;47434;-94
2021/06/24 00:14:45;;;;;;;;;11.50;10.00;;;;;16.90;61.40;101841.94;6303978;22;45709;-93
2021/06/24 00:17:17;;;;;;;;;12.00;10.33;;;;;16.93;61.04;101857.03;6303941;22;45362;-94
2021/06/24 00:19:43;;;;;;;;;11.67;10.00;;;;;16.73;61.60;101818.78;6305196;22;45201;-95
2021/06/24 00:22:11;;;;;;;;;14.67;13.33;;;;;16.88;61.44;101844.59;6305052;22;47105;-94
2021/06/24 00:24:44;;;;;;;;;14.33;12.00;;;;;16.89;61.62;101848.16;6304575;22;45431;-95
2021/06/24 00:27:12;;;;;;;;;15.33;14.00;;;;;16.86;61.87;101837.50;6304457;22;45429;-94
2021/06/24 00:29:44;;;;;;;;;11.67;11.67;;;;;16.96;62.20;101850.00;6305538;22;45389;-93
2021/06/24 00:32:15;;;;;;;;;15.00;13.33;;;;;16.78;61.55;101810.88;6304062;22;48341;-93
2021/06/24 00:34:43;;;;;;;;;18.33;11.00;;;;;16.82;61.56;101809.13;6310323;22;45243;-95
2021/06/24 00:37:10;;;;;;;;;12.33;11.00;;;;;16.93;61.59;101831.38;6312961;22;45333;-95
2021/06/24 00:39:38;;;;;;;;;12.00;11.33;;;;;16.95;61.47;101829.63;6311239;22;45325;-94
2021/06/24 00:42:12;;;;;;;;;10.00;9.33;;;;;16.88;61.46;101812.75;6306895;22;47081;-95
2021/06/24 00:44:43;;;;;;;;;12.00;11.00;;;;;16.96;61.19;101826.09;6304728;22;45339;-95
2021/06/24 00:47:09;;;;;;;;;12.67;11.33;;;;;16.85;61.44;101803.88;6278537;22;45422;-95
2021/06/24 00:49:37;;;;;;;;;12.33;10.00;;;;;16.81;61.81;101808.25;6303183;22;45495;-95
2021/06/24 00:52:13;;;;;;;;;;;;;;;;;;;;;
2021/06/24 00:54:39;;;;;;;;;13.33;10.33;;;;;16.93;61.34;101825.16;6277229;22;72959;-94
2021/06/24 00:57:07;;;;;;;;;10.67;10.33;;;;;16.93;61.88;101817.19;6303250;22;45204;-95
2021/06/24 00:59:35;;;;;;;;;10.00;10.00;;;;;16.82;61.90;101795.84;6304215;22;45377;-94
2021/06/24 01:02:04;;;;;;;;;11.00;9.67;;;;;16.88;61.56;101809.19;6279773;22;46487;-95
2021/06/24 01:04:33;;;;;;;;;10.00;10.00;;;;;16.79;61.26;101792.28;6304742;22;45954;-93
2021/06/24 01:07:06;;;;;;;;;9.00;9.00;;;;;16.90;61.27;101816.28;6304093;22;45397;-94
2021/06/24 01:09:37;;;;;;;;;11.00;11.00;;;;;16.77;60.95;101794.06;6304698;22;45568;-95
2021/06/24 01:12:08;;;;;;;;;12.67;11.67;;;;;16.83;60.99;101810.94;6302645;22;48078;-94
2021/06/24 01:14:35;;;;;;;;;14.00;9.00;;;;;16.83;61.35;101813.59;6303008;22;45354;-93
2021/06/24 01:17:00;;;;;;;;;11.67;10.67;;;;;16.65;61.14;101784.22;6303859;22;45377;-94
2021/06/24 01:19:26;;;;;;;;;12.33;9.00;;;;;16.65;61.31;101781.56;6305672;22;45312;-96
2021/06/24 01:21:53;;;;;;;;;11.33;10.00;;;;;16.79;61.44;101812.69;6304973;22;46995;-93
2021/06/24 01:24:21;;;;;;;;;14.67;11.00;;;;;16.78;61.44;101803.81;6281270;22;45201;-94
2021/06/24 01:26:48;;;;;;;;;8.33;8.33;;;;;16.63;61.87;101780.66;6313241;22;44708;-94
2021/06/24 01:29:21;;;;;;;;;7.00;7.00;;;;;16.62;61.54;101785.97;6315362;22;45499;-95
2021/06/24 01:31:46;;;;;;;;;11.33;9.00;;;;;16.72;61.65;101801.09;6284652;22;47032;-95
2021/06/24 01:34:22;;;;;;;;;11.00;9.00;;;;;16.71;61.86;101804.63;6310004;22;45312;-94
2021/06/24 01:36:47;;;;;;;;;8.00;8.00;;;;;16.61;62.29;101787.72;6280713;22;45336;-94
2021/06/24 01:39:17;;;;;;;;;12.00;9.67;;;;;16.78;62.66;101813.53;6305052;22;45335;-94
2021/06/24 01:41:49;;;;;;;;;10.00;10.00;;;;;16.63;62.19;101780.66;6304834;22;47198;-95
2021/06/24 01:44:44;;;;;;;;;12.00;9.67;;;;;16.61;61.49;101768.25;6303846;22;45432;-94
2021/06/24 01:47:13;;;;;;;;;10.00;9.00;;;;;16.70;61.50;101786.03;6304786;22;45378;-95
2021/06/24 01:49:45;;;;;;;;;11.67;10.33;;;;;16.74;61.70;101799.34;6305667;22;45276;-95
2021/06/24 01:52:15;;;;;;;;;11.00;11.00;;;;;16.61;61.54;101785.06;6306577;22;48153;-95
2021/06/24 01:54:48;;;;;;;;;12.33;10.33;;;;;16.55;62.17;101766.44;6312743;22;45347;-95
2021/06/24 01:57:16;;;;;;;;;15.00;10.33;;;;;16.64;61.75;101779.81;6317645;22;44686;-95
2021/06/24 01:59:49;;;;;;;;;13.00;10.00;;;;;16.55;61.55;101766.44;6297697;22;45235;-93
2021/06/24 02:02:15;;;;;;;;;9.33;8.67;;;;;16.53;61.64;101758.47;6321263;22;47020;-95
2021/06/24 02:04:47;;;;;;;;;11.67;9.67;;;;;16.62;61.70;101770.94;6320747;22;44740;-93
2021/06/24 02:07:16;;;;;;;;;14.33;10.00;;;;;16.61;61.73;101766.50;6295271;22;45328;-93
2021/06/24 02:09:43;;;;;;;;;9.67;9.00;;;;;16.60;61.88;101763.81;6315600;22;44779;-95
2021/06/24 02:12:09;;;;;;;;;11.67;9.00;;;;;16.64;61.59;101770.94;6317129;22;46766;-94
2021/06/24 02:14:35;;;;;;;;;11.33;9.67;;;;;16.52;61.16;101748.72;6317922;22;45264;-93
2021/06/24 02:17:05;;;;;;;;;11.00;9.33;;;;;16.50;61.43;101747.81;6303570;22;45435;-94
2021/06/24 02:19:41;;;;;;;;;12.00;10.67;;;;;16.59;61.67;101762.03;6308564;22;45207;-95
2021/06/24 02:22:09;;;;;;;;;11.33;11.00;;;;;16.66;61.44;101772.75;6278261;22;46972;-95
2021/06/24 02:24:34;;;;;;;;;8.33;7.33;;;;;16.60;61.48;101758.53;6303206;22;45444;-95
2021/06/24 02:27:03;;;;;;;;;12.00;10.33;;;;;16.59;61.23;101757.63;6303597;22;45451;-94
2021/06/24 02:29:31;;;;;;;;;9.67;9.00;;;;;16.50;61.23;101747.81;6278535;22;45490;-95
2021/06/24 02:31:56;;;;;;;;;10.00;8.00;;;;;16.41;61.81;101738.00;6303358;22;47447;-93
2021/06/24 02:34:27;;;;;;;;;12.00;9.33;;;;;16.49;62.17;101745.16;6303343;22;45426;-95
2021/06/24 02:36:53;;;;;;;;;9.00;9.00;;;;;16.59;61.43;101762.03;6304077;22;45377;-95
2021/06/24 02:39:20;;;;;;;;;11.00;10.00;;;;;16.48;61.37;101744.25;6307607;22;45224;-94
2021/06/24 02:41:48;;;;;;;;;10.00;8.67;;;;;16.39;61.09;101729.13;6311011;22;47043;-93
2021/06/24 02:44:18;;;;;;;;;11.00;9.00;;;;;16.43;61.29;101730.06;6304917;22;45381;-94
2021/06/24 02:46:44;;;;;;;;;8.67;8.67;;;;;16.37;61.31;101722.06;6303858;22;45263;-94
2021/06/24 02:49:11;;;;;;;;;10.00;9.00;;;;;16.42;61.75;101739.78;6303462;22;45476;-95
2021/06/24 02:51:47;;;;;;;;;9.67;8.67;;;;;16.52;61.29;101755.81;6302589;22;47531;-94
2021/06/24 02:54:14;;;;;;;;;11.00;10.00;;;;;16.52;61.00;101755.81;6302352;22;45204;-95
2021/06/24 02:56:45;;;;;;;;;11.67;10.67;;;;;16.49;61.03;101761.06;6276287;22;45427;-94
2021/06/24 02:59:15;;;;;;;;;9.33;9.33;;;;;16.31;61.35;101729.06;6303284;22;45452;-95
2021/06/24 03:01:51;;;;;;;;;;;;;;;;;;;;;
2021/06/24 03:04:33;;;;;;;;;9.33;9.33;;;;;16.43;61.30;101757.47;6279682;22;71879;-94
2021/06/24 03:07:01;;;;;;;;;12.33;10.00;;;;;16.35;61.12;101743.25;6306878;22;45386;-94
2021/06/24 03:09:26;;;;;;;;;11.33;9.00;;;;;16.23;61.20;101727.22;6306340;22;45404;-93
2021/06/24 03:11:52;;;;;;;;;10.00;10.00;;;;;16.26;61.37;101733.44;6306906;22;46995;-93
2021/06/24 03:14:17;;;;;;;;;9.00;6.67;;;;;16.26;61.34;101729.91;6308478;22;45382;-94
2021/06/24 03:16:47;;;;;;;;;9.67;7.00;;;;;16.25;60.91;101736.97;6310353;22;44725;-95
2021/06/24 03:19:15;;;;;;;;;9.67;9.00;;;;;16.16;61.13;101732.44;6286638;22;45538;-95
2021/06/24 03:21:48;;;;;;;;;11.00;9.67;;;;;16.14;61.36;101730.69;6313927;22;48203;-94
2021/06/24 03:24:14;;;;;;;;;12.33;11.00;;;;;16.14;61.55;101741.28;6310564;22;45320;-95
2021/06/24 03:26:43;;;;;;;;;8.67;8.67;;;;;16.12;61.29;101729.78;6310184;22;44819;-95
2021/06/24 03:29:14;;;;;;;;;8.00;7.67;;;;;16.29;61.70;101769.72;6313774;22;44827;-94
2021/06/24 03:31:42;;;;;;;;;10.33;8.00;;;;;16.28;61.40;101770.59;6311688;22;47562;-94
2021/06/24 03:34:08;;;;;;;;;8.00;8.00;;;;;16.09;61.68;101734.19;6313786;22;44721;-92
2021/06/24 03:36:33;;;;;;;;;10.33;9.67;;;;;16.11;61.85;101741.25;6311867;22;44727;-93
2021/06/24 03:38:59;;;;;;;;;8.67;7.67;;;;;16.07;61.63;101733.28;6314887;22;45596;-95
2021/06/24 03:41:26;;;;;;;;;11.00;9.00;;;;;16.09;61.86;101738.59;6288924;22;47006;-92
2021/06/24 03:44:04;;;;;;;;;8.67;8.00;;;;;16.12;61.73;101745.69;6317259;22;44778;-94
2021/06/24 03:46:32;;;;;;;;;6.33;6.33;;;;;16.18;61.42;101761.66;6289851;22;44805;-94
2021/06/24 03:48:57;;;;;;;;;9.33;7.00;;;;;16.05;61.42;101744.72;6317614;22;45343;-93
2021/06/24 03:51:23;;;;;;;;;9.00;8.00;;;;;16.11;61.62;101751.84;6317915;22;47314;-96
2021/06/24 03:53:49;;;;;;;;;10.67;7.67;;;;;15.99;61.54;101737.53;6319313;22;44926;-93
2021/06/24 03:56:14;;;;;;;;;12.67;8.67;;;;;16.11;61.94;101751.84;6291149;22;45209;-94
2021/06/24 03:58:44;;;;;;;;;6.67;4.67;;;;;16.07;62.20;101754.50;6316518;22;45450;-93
2021/06/24 04:01:12;;;;;;;;;10.00;9.00;;;;;15.98;61.56;101738.44;6311821;22;47232;-93
2021/06/24 04:03:38;;;;;;;;;8.00;8.00;;;;;15.95;61.73;101733.06;6288882;22;45220;-95
2021/06/24 04:06:04;;;;;;;;;8.33;7.67;;;;;16.00;61.79;101752.59;6279240;22;45318;-95
2021/06/24 04:08:35;;;;;;;;;9.33;8.67;;;;;16.07;61.88;101764.19;6311996;22;44875;-94
2021/06/24 04:11:00;;;;;;;;;10.67;9.00;;;;;16.03;61.62;101755.28;6309142;22;47058;-94
2021/06/24 04:13:26;;;;;;;;;10.33;8.00;;;;;15.89;62.05;101733.91;6278076;22;45339;-93
2021/06/24 04:15:52;;;;;;;;;8.00;7.00;;;;;15.90;61.78;101745.41;6307423;22;45495;-93
2021/06/24 04:18:18;;;;;;;;;8.67;8.33;;;;;15.85;61.55;101738.28;6308781;22;45406;-94
2021/06/24 04:20:43;;;;;;;;;11.00;9.00;;;;;15.94;61.77;101744.56;6309051;22;47937;-94
2021/06/24 04:23:12;;;;;;;;;9.33;7.67;;;;;15.89;62.18;101738.31;6317943;22;45254;-95
2021/06/24 04:25:37;;;;;;;;;7.00;7.00;;;;;15.92;61.61;101748.97;6285973;22;45224;-94
2021/06/24 04:28:05;;;;;;;;;11.00;9.00;;;;;15.85;61.58;101748.91;6289785;22;45379;-92
2021/06/24 04:30:31;;;;;;;;;10.33;9.00;;;;;15.89;61.95;101759.53;6292029;22;47315;-93
2021/06/24 04:32:59;;;;;;;;;12.00;9.00;;;;;15.79;61.73;101748.81;6309833;22;45410;-93
2021/06/24 04:35:25;;;;;;;;;11.67;9.00;;;;;15.74;61.67;101746.09;6313689;22;44796;-93
2021/06/24 04:38:00;;;;;;;;;;;;;;;;;;;;;
2021/06/24 04:40:28;;;;;;;;;9.00;7.33;;;;;15.76;62.03;101759.38;6293421;22;74788;-92
2021/06/24 04:42:54;;;;;;;;;11.00;9.33;;;;;15.81;61.94;101763.00;6317886;22;45368;-92
2021/06/24 04:45:20;;;;;;;;;7.00;7.00;;;;;15.82;61.97;101769.19;6291430;22;44846;-91
2021/06/24 04:47:48;;;;;;;;;10.00;9.00;;;;;15.94;62.09;101789.66;6291047;22;45345;-93
2021/06/24 04:50:14;;;;;;;;;8.00;8.00;;;;;15.89;61.82;101781.63;6322253;22;48180;-92
2021/06/24 04:52:39;;;;;;;;;11.00;7.33;;;;;15.82;61.66;101770.06;6296888;22;45287;-92
2021/06/24 04:55:07;;;;;;;;;8.00;7.00;;;;;15.89;62.17;101786.94;6323310;22;44662;-91
2021/06/24 04:57:32;;;;;;;;;6.00;6.00;;;;;15.76;61.73;101764.69;6322549;22;44854;-92
2021/06/24 04:59:58;;;;;;;;;11.67;9.00;;;;;15.76;61.87;101767.34;6316894;22;47249;-92
2021/06/24 05:02:39;;;;;;;;;;;;;;;;;;;;;
2021/06/24 05:05:07;;;;;;;;;11.33;9.00;;;;;15.85;61.47;101779.81;6283152;22;68983;-85
2021/06/24 05:07:35;;;;;;;;;11.00;9.67;;;;;15.90;62.29;101787.84;6246060;22;45331;-86
2021/06/24 05:10:01;;;;;;;;;12.00;10.00;;;;;15.89;62.08;101778.97;6249693;22;46228;-83
2021/06/24 05:12:26;;;;;;;;;11.67;8.67;;;;;15.94;61.69;101784.34;6246323;22;45252;-85
2021/06/24 05:14:52;;;;;;;;;9.00;7.00;;;;;15.94;61.84;101784.34;6245765;22;45266;-83
2021/06/24 05:17:18;;;;;;;;;10.33;8.33;;;;;15.99;62.38;101793.22;6244992;22;45345;-81
2021/06/24 05:19:43;;;;;;;;;10.00;10.00;;;;;16.03;62.02;101792.44;6243482;22;46452;-81
2021/06/24 05:22:10;;;;;;;;;7.00;6.00;;;;;16.03;61.91;101797.72;6245000;22;45295;-80
2021/06/24 05:24:36;;;;;;;;;9.00;8.33;;;;;16.02;62.11;101798.63;6245156;22;45268;-82
2021/06/24 05:27:01;;;;;;;;;13.00;11.00;;;;;16.04;62.11;101802.19;6244501;22;45690;-81
2021/06/24 05:29:27;;;;;;;;;11.33;11.33;;;;;16.05;61.59;101801.31;6244396;22;46578;-81
2021/06/24 05:31:52;;;;;;;;;12.00;10.33;;;;;16.04;61.87;101791.56;6244206;22;45280;-81
2021/06/24 05:34:17;;;;;;;;;11.33;8.33;;;;;16.01;61.83;101786.19;6244503;22;45456;-82
2021/06/24 05:36:43;;;;;;;;;10.67;10.67;;;;;16.02;61.47;101792.38;6245141;22;45291;-80
2021/06/24 05:39:09;;;;;;;;;16.00;9.67;;;;;15.96;61.76;101777.31;6244488;22;45914;-80
2021/06/24 05:41:35;;;;;;;;;10.33;8.00;;;;;15.96;61.54;101778.19;6244637;22;45280;-81
2021/06/24 05:44:00;;;;;;;;;10.67;10.00;;;;;15.97;61.89;101776.41;6244600;22;45307;-83
2021/06/24 05:46:27;;;;;;;;;12.33;10.00;;;;;15.97;62.04;101784.38;6245013;22;45322;-80
2021/06/24 05:48:53;;;;;;;;;13.33;11.67;;;;;15.97;62.00;101790.56;6244274;22;45350;-82
2021/06/24 05:51:19;;;;;;;;;9.00;9.00;;;;;15.93;61.44;101788.75;6243803;22;45349;-84
2021/06/24 05:53:44;;;;;;;;;16.33;12.00;;;;;15.95;61.08;101791.41;6244806;22;45114;-82
2021/06/24 05:56:10;;;;;;;;;11.67;11.00;;;;;15.89;61.04;101792.25;6244715;22;45199;-82
2021/06/24 05:58:35;;;;;;;;;9.67;9.00;;;;;15.91;61.68;101792.25;6244666;22;45444;-84
2021/06/24 06:01:01;;;;;;;;;14.33;11.00;;;;;15.89;61.63;101802.84;6244035;22;45206;-82
2021/06/24 06:03:27;;;;;;;;;10.00;10.00;;;;;15.89;61.83;101801.94;6244730;22;45326;-81
2021/06/24 06:05:54;;;;;;;;;10.67;10.00;;;;;15.86;62.15;101797.53;6244309;22;45205;-84
2021/06/24 06:08:19;;;;;;;;;11.33;11.00;;;;;15.88;61.97;101805.50;6243895;22;45275;-85
2021/06/24 06:10:46;;;;;;;;;8.33;8.33;;;;;15.86;62.17;101808.13;6244505;22;45417;-81
2021/06/24 06:13:12;;;;;;;;;11.33;8.33;;;;;15.84;61.98;101805.44;6244694;22;45355;-81
2021/06/24 06:15:40;;;;;;;;;10.33;9.33;;;;;15.83;61.92;101814.28;6244992;22;45355;-83
2021/06/24 06:18:10;;;;;;;;;13.00;10.33;;;;;15.84;62.09;101804.56;6243504;22;46066;-88
2021/06/24 06:20:38;;;;;;;;;12.00;11.00;;;;;15.84;62.01;101810.72;6243563;22;45320;-88
2021/06/24 06:23:04;;;;;;;;;12.00;10.33;;;;;15.70;61.36;101793.75;6245799;22;45213;-89
2021/06/24 06:25:29;;;;;;;;;10.67;10.67;;;;;15.70;61.49;101791.13;6245687;22;45236;-88
2021/06/24 06:27:55;;;;;;;;;10.00;9.33;;;;;15.62;61.85;101789.25;6243153;22;47109;-88
2021/06/24 06:30:21;;;;;;;;;8.33;8.00;;;;;15.65;61.78;101796.38;6245369;22;45237;-88
2021/06/24 06:32:46;;;;;;;;;12.00;11.67;;;;;15.71;62.00;101812.38;6243436;22;45288;-88
2021/06/24 06:35:12;;;;;;;;;11.00;11.00;;;;;15.66;61.71;101795.50;6244063;22;45533;-88
2021/06/24 06:37:37;;;;;;;;;13.33;10.00;;;;;15.80;62.09;101824.81;6242889;22;46896;-88
2021/06/24 06:40:05;;;;;;;;;13.67;10.00;;;;;15.65;62.31;101803.44;6245464;22;45346;-89
2021/06/24 06:42:31;;;;;;;;;11.67;11.00;;;;;15.71;62.30;101814.13;6218134;22;45358;-88
2021/06/24 06:44:56;;;;;;;;;10.33;10.00;;;;;15.68;61.60;101808.75;6246265;22;45362;-88
2021/06/24 06:47:21;;;;;;;;;12.00;10.67;;;;;15.83;62.08;101834.59;6245061;22;46885;-89
2021/06/24 06:49:47;;;;;;;;;13.00;9.33;;;;;15.69;61.65;101805.25;6247422;22;45333;-88
2021/06/24 06:52:12;;;;;;;;;9.33;8.00;;;;;15.65;62.07;101806.09;6245585;22;45329;-89
2021/06/24 06:54:37;;;;;;;;;14.33;11.00;;;;;15.64;61.92;101810.47;6243691;22;45271;-88
2021/06/24 06:57:03;;;;;;;;;13.00;10.33;;;;;15.79;62.05;101833.66;6243988;22;46852;-89
2021/06/24 06:59:30;;;;;;;;;14.33;11.00;;;;;15.67;61.80;101812.28;6243758;22;45224;-89
2021/06/24 07:01:55;;;;;;;;;12.00;11.00;;;;;15.80;61.77;101827.47;6244428;22;45269;-89
2021/06/24 07:04:21;;;;;;;;;10.00;9.33;;;;;15.75;62.01;101821.25;6247095;22;45328;-89
2021/06/24 07:06:46;;;;;;;;;13.00;10.00;;;;;15.67;61.80;101812.28;6248507;22;48164;-91
2021/06/24 07:09:12;;;;;;;;;13.67;10.33;;;;;15.81;62.33;101837.22;6248198;22;45271;-88
2021/06/24 07:11:37;;;;;;;;;12.33;10.33;;;;;15.75;62.26;101826.53;6269068;22;44568;-89
2021/06/24 07:14:03;;;;;;;;;17.33;12.33;;;;;15.69;62.11;101818.50;6268800;22;44689;-89
2021/06/24 07:16:28;;;;;;;;;14.00;10.25;;;;;15.62;61.71;101804.28;6268078;22;46827;-88
2021/06/24 07:18:53;;;;;;;;;8.67;8.00;;;;;15.77;61.50;101831.84;6258928;22;45255;-89
2021/06/24 07:21:19;;;;;;;;;13.33;12.00;;;;;15.70;61.80;101820.28;6250807;22;45650;-87
2021/06/24 07:23:44;;;;;;;;;11.67;10.33;;;;;15.75;62.28;101823.88;6250667;22;45347;-89
2021/06/24 07:26:10;;;;;;;;;14.00;11.67;;;;;15.76;61.74;101823.00;6256091;22;45376;-90
2021/06/24 07:28:35;;;;;;;;;12.00;12.00;;;;;15.82;62.11;101827.53;6245851;22;45367;-89
2021/06/24 07:31:01;;;;;;;;;13.33;10.00;;;;;15.84;62.27;101829.28;6243903;22;45409;-89
2021/06/24 07:33:26;;;;;;;;;12.33;10.67;;;;;15.86;62.28;101838.16;6244611;22;45413;-89
2021/06/24 07:35:52;;;;;;;;;7.00;7.00;;;;;15.82;61.84;101815.13;6247071;22;45863;-89
2021/06/24 07:38:20;;;;;;;;;8.33;8.33;;;;;15.90;61.60;101831.16;6246784;22;45323;-88
2021/06/24 07:40:46;;;;;;;;;14.67;11.67;;;;;15.91;61.63;101826.72;6244627;22;44695;-87
2021/06/24 07:43:11;;;;;;;;;11.00;11.00;;;;;15.89;62.14;101817.84;6249037;22;45239;-89
2021/06/24 07:45:37;;;;;;;;;10.67;8.00;;;;;15.87;61.65;101809.88;6247617;22;47096;-88
2021/06/24 07:48:04;;;;;;;;;10.00;10.00;;;;;15.89;61.43;101810.81;6249962;22;45284;-89
2021/06/24 07:50:30;;;;;;;;;9.00;9.00;;;;;15.96;62.33;101828.59;6260691;22;45153;-88
2021/06/24 07:52:56;;;;;;;;;13.00;12.00;;;;;16.08;61.92;101834.94;6270366;22;44743;-89
2021/06/24 07:55:21;;;;;;;;;12.00;10.33;;;;;16.01;61.49;101820.66;6272282;22;45275;-89
2021/06/24 07:57:47;;;;;;;;;12.00;12.00;;;;;16.05;61.50;101829.59;6268018;22;45208;-89
2021/06/24 08:00:13;;;;;;;;;11.33;11.00;;;;;16.01;61.32;101809.19;6246430;22;45356;-89
2021/06/24 08:02:38;;;;;;;;;11.67;9.67;;;;;15.99;61.30;101811.78;6245512;22;45193;-88
2021/06/24 08:05:07;;;;;;;;;11.00;11.00;;;;;16.12;61.40;101834.09;6243578;22;48227;-90
2021/06/24 08:07:34;;;;;;;;;11.33;11.33;;;;;16.07;61.11;101817.25;6245588;22;45265;-90
2021/06/24 08:10:03;;;;;;;;;12.00;10.67;;;;;16.07;62.13;101811.94;6245820;22;45366;-90
2021/06/24 08:12:31;;;;;;;;;13.33;11.00;;;;;16.15;61.93;101817.31;6245443;22;45339;-90
2021/06/24 08:14:57;;;;;;;;;14.33;12.00;;;;;16.20;61.48;101820.94;6242917;22;47236;-91
2021/06/24 08:17:22;;;;;;;;;10.67;9.00;;;;;16.27;61.43;101820.13;6244956;22;45300;-89
2021/06/24 08:19:48;;;;;;;;;8.33;8.33;;;;;16.29;61.61;101821.03;6242848;22;45479;-90
2021/06/24 08:22:13;;;;;;;;;11.00;11.00;;;;;16.34;61.22;101828.16;6243059;22;45480;-90
2021/06/24 08:24:38;;;;;;;;;13.33;12.00;;;;;16.41;61.38;101828.22;6244242;22;47941;-90
2021/06/24 08:27:04;;;;;;;;;12.67;11.33;;;;;16.40;61.33;101828.22;6244775;22;45569;-90
2021/06/24 08:29:30;;;;;;;;;11.33;11.00;;;;;16.40;61.95;101820.25;6245289;22;45295;-91
2021/06/24 08:31:55;;;;;;;;;10.00;10.00;;;;;16.43;61.96;101820.28;6245352;22;45493;-91
2021/06/24 08:34:20;;;;;;;;;12.67;9.00;;;;;16.54;61.83;101839.84;6246954;22;46075;-90
2021/06/24 08:36:46;;;;;;;;;12.00;11.00;;;;;16.52;62.09;101819.50;6246469;22;45290;-91
2021/06/24 08:39:12;;;;;;;;;10.67;10.67;;;;;16.59;60.90;101823.09;6244682;22;45347;-90
2021/06/24 08:41:37;;;;;;;;;12.00;10.33;;;;;16.64;60.79;101829.34;6245295;22;45342;-89
2021/06/24 08:44:06;;;;;;;;;11.00;9.33;;;;;16.75;61.12;101838.28;6244554;22;47675;-90
2021/06/24 08:46:31;;;;;;;;;12.00;10.33;;;;;16.79;61.22;101840.09;6244003;22;45300;-90
2021/06/24 08:49:00;;;;;;;;;14.33;12.67;;;;;16.82;60.56;101827.72;6244808;22;45307;-90
2021/06/24 08:51:26;;;;;;;;;10.33;9.00;;;;;16.81;60.49;101824.19;6252609;22;45322;-90
2021/06/24 08:53:55;;;;;;;;;11.00;11.00;;;;;16.91;60.40;101841.09;6246376;22;47903;-90
2021/06/24 08:56:20;;;;;;;;;13.33;11.00;;;;;16.89;60.93;101826.91;6245600;22;45230;-88
2021/06/24 08:58:47;;;;;;;;;12.33;11.00;;;;;16.91;60.81;101817.19;6244367;22;45541;-88
2021/06/24 09:01:13;;;;;;;;;13.00;10.00;;;;;17.02;60.62;101826.16;6246330;22;45267;-88
2021/06/24 09:03:39;;;;;;;;;12.00;9.67;;;;;17.15;60.47;101847.53;6247388;22;45368;-88
2021/06/24 09:06:06;;;;;;;;;14.33;10.00;;;;;17.12;60.93;101831.53;6246540;22;45386;-89
2021/06/24 09:08:45;;;;;;;;;13.00;13.00;;;;;17.18;60.14;101828.03;6252198;22;44794;-90
2021/06/24 09:11:19;;;;;;;;;12.00;11.00;;;;;17.28;60.08;101826.38;6244846;22;45285;-89
2021/06/24 09:13:58;;;;;;;;;13.00;11.00;;;;;17.38;59.43;101844.16;6243574;22;47920;-89
2021/06/24 09:16:26;;;;;;;;;11.33;10.67;;;;;17.34;59.89;101831.72;6243580;22;45345;-87
2021/06/24 09:19:19;;;;;;;;;17.33;12.00;;;;;17.43;59.92;101837.06;6246308;22;45323;-88
2021/06/24 09:21:53;;;;;;;;;17.00;11.67;;;;;17.50;59.35;101834.47;6243532;22;45366;-88
2021/06/24 09:24:25;;;;;;;;;13.00;9.67;;;;;17.61;59.15;101834.53;6243367;22;47343;-87
2021/06/24 09:26:51;;;;;;;;;11.00;10.33;;;;;17.56;59.13;101831.84;6257260;22;45192;-89
2021/06/24 09:29:18;;;;;;;;;12.00;10.67;;;;;17.71;59.45;101842.56;6244872;22;45314;-89
2021/06/24 09:31:48;;;;;;;;;11.00;10.00;;;;;17.77;58.96;101849.69;6244746;22;45355;-90
2021/06/24 09:34:15;;;;;;;;;14.00;10.00;;;;;17.71;58.92;101831.03;6243595;22;48101;-89
2021/06/24 09:36:42;;;;;;;;;10.67;9.00;;;;;17.78;58.88;101832.84;6245478;22;45695;-91
2021/06/24 09:39:29;;;;;;;;;16.33;12.67;;;;;17.84;58.83;101842.63;6243767;22;45319;-88
2021/06/24 09:42:05;;;;;;;;;12.33;11.00;;;;;17.94;58.59;101849.75;6246170;22;45354;-88
2021/06/24 09:44:32;;;;;;;;;12.75;11.75;;;;;17.97;59.17;101850.66;6245535;22;46266;-89
2021/06/24 09:46:59;;;;;;;;;15.33;11.00;;;;;18.00;58.57;101856.88;6245576;22;45448;-89
2021/06/24 09:49:35;;;;;;;;;15.00;13.00;;;;;18.07;59.01;101863.13;6244359;22;45296;-88
2021/06/24 09:52:05;;;;;;;;;15.00;12.00;;;;;18.03;58.22;101856.00;6245831;22;45273;-89
2021/06/24 09:55:33;;;;;;;;;12.67;11.00;;;;;18.14;58.23;101861.38;6243008;22;48627;-90
2021/06/24 09:58:15;;;;;;;;;13.00;12.00;;;;;18.12;57.75;101857.81;6096702;23;45313;-89
2021/06/24 10:00:52;;;;;;;;;11.33;11.33;;;;;18.02;58.03;101840.94;6121149;22;45436;-89
2021/06/24 10:03:18;;;;;;;;;11.33;10.00;;;;;18.08;58.48;101846.28;6122587;23;45357;-88
2021/06/24 10:05:44;;;;;;;;;16.00;12.00;;;;;18.17;58.46;101872.06;6120980;23;46973;-90
2021/06/24 10:08:11;;;;;;;;;12.33;10.33;;;;;18.23;58.53;101871.22;6096969;23;45296;-91
2021/06/24 10:10:39;;;;;;;;;11.67;11.33;;;;;18.22;58.03;101864.09;6121882;22;45316;-88
2021/06/24 10:13:09;;;;;;;;;18.67;12.33;;;;;18.30;57.62;101873.00;6097273;23;45859;-89
2021/06/24 10:15:35;;;;;;;;;12.33;11.00;;;;;18.14;58.34;101835.66;6121771;23;46394;-89
2021/06/24 10:18:00;;;;;;;;;13.33;11.33;;;;;18.12;58.62;101837.44;6122010;23;45343;-89
2021/06/24 10:20:28;;;;;;;;;14.00;12.67;;;;;18.30;58.04;101869.47;6097038;23;45327;-89
2021/06/24 10:23:01;;;;;;;;;10.33;10.33;;;;;18.33;58.13;101883.66;6097138;23;45263;-90
2021/06/24 10:25:27;;;;;;;;;13.67;12.67;;;;;18.33;57.98;101866.78;6122347;23;46062;-89
2021/06/24 10:27:56;;;;;;;;;14.33;11.67;;;;;18.28;57.99;101859.69;6174456;22;45259;-89
2021/06/24 10:30:23;;;;;;;;;14.33;11.67;;;;;18.23;57.69;101849.91;6245786;22;45725;-89
2021/06/24 10:33:11;;;;;;;;;14.00;12.00;;;;;18.28;57.04;101850.81;6246023;22;45257;-89
2021/06/24 10:35:39;;;;;;;;;10.67;10.67;;;;;18.34;57.65;101847.28;6244963;22;46102;-91
2021/06/24 10:38:06;;;;;;;;;14.67;11.67;;;;;18.50;57.00;101861.53;6243370;22;45758;-90
2021/06/24 10:40:40;;;;;;;;;12.67;11.67;;;;;18.48;56.84;101855.31;6245603;22;45373;-90
2021/06/24 10:43:13;;;;;;;;;13.00;10.67;;;;;18.52;56.57;101857.09;6245320;22;45341;-90
2021/06/24 10:45:42;;;;;;;;;10.33;10.33;;;;;18.68;56.74;101868.66;6243036;22;48146;-89
2021/06/24 10:48:30;;;;;;;;;13.33;11.67;;;;;18.66;55.97;101848.22;6244107;22;45369;-91
2021/06/24 10:51:07;;;;;;;;;12.00;10.00;;;;;18.86;57.11;101867.81;6245664;22;45238;-91
2021/06/24 10:53:33;;;;;;;;;9.67;9.67;;;;;18.92;55.56;101868.69;6246003;22;45275;-90
2021/06/24 10:55:58;;;;;;;;;11.00;10.33;;;;;18.91;56.23;101849.13;6243660;22;47627;-91
2021/06/24 10:58:28;;;;;;;;;11.33;9.67;;;;;19.05;56.16;101862.47;6247016;22;45664;-88
2021/06/24 11:00:54;;;;;;;;;15.00;14.33;;;;;19.15;56.33;101863.38;6244353;22;45400;-89
2021/06/24 11:03:31;;;;;;;;;13.00;11.67;;;;;19.29;56.05;101862.50;6245898;22;45197;-88
2021/06/24 11:06:33;;;;;;;;;16.00;12.67;;;;;19.48;56.00;101860.66;6244501;22;46252;-89
2021/06/24 11:09:15;;;;;;;;;12.67;11.33;;;;;19.61;56.47;101844.63;6095964;23;45783;-88
2021/06/24 11:11:43;;;;;;;;;13.00;11.67;;;;;19.78;55.82;101845.47;6096123;23;45426;-90
2021/06/24 11:14:13;;;;;;;;;12.67;9.67;;;;;19.92;54.94;101828.56;6097058;23;45200;-88
2021/06/24 11:16:39;;;;;;;;;13.00;10.33;;;;;20.25;56.14;101849.75;6096048;23;47194;-88
2021/06/24 11:19:08;;;;;;;;;14.33;12.33;;;;;20.32;54.75;101826.59;6095834;23;45530;-90
2021/06/24 11:21:34;;;;;;;;;10.00;9.00;;;;;20.65;53.88;101850.41;6121828;23;45327;-90
2021/06/24 11:24:05;;;;;;;;;8.33;7.33;;;;;20.86;54.59;101843.13;6122017;23;45652;-90